Time;durP1;ratioP1;P1;durP2;ratioP2;P2;SDS_P1;SDS_P2;PMS_P1;PMS_P2;Temp;Humidity;BMP_temperature;BMP_pressure;BME280_temperature;BME280_humidity;BME280_pressure;Samples;Min_cycle;Max_cycle;Signal;HPM_P1;HPM_P2
2021/05/01 00:00:15;;;;;;;31.33;26.83;;;7.30;99.90;;;;;;5049063;28;20175;-75
2021/05/01 00:02:43;;;;;;;32.40;28.87;;;7.30;99.90;;;;;;5050775;28;20920;-75
2021/05/01 00:05:10;;;;;;;32.70;28.60;;;7.30;99.90;;;;;;5050846;28;20477;-75
2021/05/01 00:07:35;;;;;;;33.47;29.27;;;7.20;99.90;;;;;;5049717;28;20446;-75
2021/05/01 00:10:02;;;;;;;31.57;26.60;;;7.30;99.90;;;;;;5051045;28;20570;-75
2021/05/01 00:12:28;;;;;;;34.17;29.60;;;7.30;99.90;;;;;;5049758;28;20662;-75
2021/05/01 00:14:53;;;;;;;33.30;28.63;;;7.30;99.90;;;;;;5051164;28;20414;-75
2021/05/01 00:17:19;;;;;;;36.47;29.63;;;7.30;99.90;;;;;;5050919;28;20234;-75
2021/05/01 00:19:44;;;;;;;35.83;29.17;;;7.30;99.90;;;;;;5049652;28;20640;-75
2021/05/01 00:22:10;;;;;;;35.20;29.53;;;7.20;99.90;;;;;;5051023;28;20195;-75
2021/05/01 00:31:20;;;;;;;31.67;25.50;;;7.20;99.90;;;;;;5051342;28;20406;-75
2021/05/01 00:33:46;;;;;;;29.20;25.67;;;7.20;99.90;;;;;;5051588;28;20767;-75
2021/05/01 00:36:12;;;;;;;30.40;24.47;;;7.10;99.90;;;;;;5051171;28;20461;-74
2021/05/01 00:38:38;;;;;;;31.60;27.13;;;7.00;99.90;;;;;;5052298;28;20414;-75
2021/05/01 00:41:04;;;;;;;31.63;27.33;;;7.10;99.90;;;;;;5055235;28;20180;-75
2021/05/01 00:43:30;;;;;;;30.80;26.63;;;7.20;99.90;;;;;;5054830;28;20423;-75
2021/05/01 00:45:55;;;;;;;34.40;28.70;;;7.20;99.90;;;;;;5055463;28;20211;-75
2021/05/01 00:48:21;;;;;;;34.17;27.30;;;7.20;99.90;;;;;;5055007;28;20191;-75
2021/05/01 00:50:47;;;;;;;35.10;28.80;;;7.30;99.90;;;;;;5055058;28;20255;-75
2021/05/01 00:53:14;;;;;;;35.30;29.53;;;7.30;99.90;;;;;;5054911;28;20222;-76
2021/05/01 00:55:43;;;;;;;33.87;28.03;;;7.30;99.90;;;;;;5054629;28;20426;-76
2021/05/01 00:58:10;;;;;;;34.90;29.70;;;7.40;99.90;;;;;;5054838;28;20438;-76
2021/05/01 01:03:19;;;;;;;35.27;29.67;;;7.40;99.90;;;;;;5054750;28;20413;-76
2021/05/01 01:05:45;;;;;;;32.40;28.13;;;7.40;99.90;;;;;;5054378;28;20461;-76
2021/05/01 01:08:10;;;;;;;27.07;24.10;;;7.40;99.90;;;;;;5054291;28;20184;-76
2021/05/01 01:10:36;;;;;;;31.10;26.90;;;7.40;99.90;;;;;;5054538;28;20190;-75
2021/05/01 01:13:02;;;;;;;30.43;26.70;;;7.40;99.90;;;;;;5054414;28;20172;-76
2021/05/01 01:15:30;;;;;;;31.33;26.67;;;7.30;99.90;;;;;;5054443;28;20180;-76
2021/05/01 01:17:56;;;;;;;33.67;27.30;;;7.30;99.90;;;;;;5054531;28;20484;-75
2021/05/01 01:20:23;;;;;;;29.60;25.30;;;7.30;99.90;;;;;;5054545;28;20423;-75
2021/05/01 01:22:49;;;;;;;35.87;27.77;;;7.10;99.90;;;;;;5054011;28;20403;-76
2021/05/01 01:25:15;;;;;;;31.73;27.43;;;7.00;99.90;;;;;;5054284;28;20875;-76
2021/05/01 01:27:46;;;;;;;31.80;28.17;;;7.00;99.90;;;;;;5054229;28;21045;-76
2021/05/01 01:30:18;;;;;;;34.57;29.50;;;6.90;99.90;;;;;;5054282;28;20462;-75
2021/05/01 01:32:44;;;;;;;34.00;27.90;;;7.00;99.90;;;;;;5054440;28;20826;-76
2021/05/01 01:35:13;;;;;;;31.33;27.20;;;7.00;99.90;;;;;;5053519;28;20426;-76
2021/05/01 01:37:43;;;;;;;33.17;28.53;;;7.00;99.90;;;;;;5053848;28;20853;-76
2021/05/01 01:40:10;;;;;;;36.70;29.97;;;7.00;99.90;;;;;;5054026;28;20399;-76
2021/05/01 01:42:37;;;;;;;39.93;33.30;;;7.00;99.90;;;;;;5054035;28;20411;-75
2021/05/01 01:45:04;;;;;;;35.90;29.30;;;7.10;99.90;;;;;;5054005;28;20809;-76
2021/05/01 01:47:30;;;;;;;36.43;31.13;;;7.00;99.90;;;;;;5053491;28;20556;-76
2021/05/01 01:49:55;;;;;;;36.93;30.17;;;7.00;99.90;;;;;;5052980;28;20501;-76
2021/05/01 01:52:21;;;;;;;35.10;29.50;;;7.10;99.90;;;;;;5053542;28;20175;-76
2021/05/01 01:54:49;;;;;;;35.13;29.47;;;7.30;99.90;;;;;;5053673;28;20164;-76
2021/05/01 01:57:15;;;;;;;40.37;32.20;;;7.20;99.90;;;;;;5053720;28;20199;-76
2021/05/01 01:59:40;;;;;;;34.30;29.30;;;7.10;99.90;;;;;;5053645;28;20868;-76
2021/05/01 02:02:06;;;;;;;33.20;27.67;;;7.20;99.90;;;;;;5053399;28;20179;-76
2021/05/01 02:04:32;;;;;;;34.80;28.37;;;7.20;99.90;;;;;;5053400;28;20182;-76
2021/05/01 02:06:58;;;;;;;34.93;29.47;;;7.20;99.90;;;;;;5053518;28;20188;-76
2021/05/01 02:09:23;;;;;;;32.73;28.97;;;7.20;99.90;;;;;;5053649;28;20410;-76
2021/05/01 02:11:49;;;;;;;32.33;28.23;;;7.20;99.90;;;;;;5053361;28;20211;-76
2021/05/01 02:14:14;;;;;;;30.87;26.60;;;7.30;99.90;;;;;;5053020;28;20255;-76
2021/05/01 02:16:40;;;;;;;33.40;27.83;;;7.30;99.90;;;;;;5053439;28;20184;-75
2021/05/01 02:19:06;;;;;;;30.97;25.83;;;7.30;99.90;;;;;;5053395;28;20215;-76
2021/05/01 02:21:31;;;;;;;29.67;25.10;;;7.40;99.90;;;;;;5053218;28;20237;-76
2021/05/01 02:23:57;;;;;;;32.17;26.33;;;7.30;99.90;;;;;;5053161;28;20184;-76
2021/05/01 02:26:22;;;;;;;31.90;26.30;;;7.20;99.90;;;;;;5052954;28;20218;-76
2021/05/01 02:28:48;;;;;;;32.13;25.03;;;7.30;99.90;;;;;;5052840;28;20199;-76
2021/05/01 02:31:13;;;;;;;32.60;27.50;;;7.20;99.90;;;;;;5052976;28;20187;-76
2021/05/01 02:33:39;;;;;;;33.87;28.43;;;7.10;99.90;;;;;;5053005;28;20237;-76
2021/05/01 02:36:05;;;;;;;33.80;26.80;;;7.10;99.90;;;;;;5052622;28;20231;-76
2021/05/01 02:38:31;;;;;;;32.13;27.00;;;7.20;99.90;;;;;;5053257;28;20222;-76
2021/05/01 02:40:56;;;;;;;31.80;26.97;;;7.20;99.90;;;;;;5052483;28;20419;-76
2021/05/01 02:43:22;;;;;;;35.90;28.73;;;7.30;99.90;;;;;;5051475;28;20184;-75
2021/05/01 02:45:48;;;;;;;38.93;30.90;;;7.20;99.90;;;;;;5052754;28;20216;-76
2021/05/01 02:48:14;;;;;;;38.97;31.13;;;7.10;99.90;;;;;;5052718;28;20266;-76
2021/05/01 02:50:40;;;;;;;38.07;31.30;;;7.10;99.90;;;;;;5052603;28;20518;-75
2021/05/01 02:53:05;;;;;;;34.03;30.10;;;7.10;99.90;;;;;;5052341;28;20674;-75
2021/05/01 02:55:32;;;;;;;38.30;30.43;;;7.00;99.90;;;;;;5051203;28;20545;-75
2021/05/01 02:57:57;;;;;;;37.70;29.80;;;7.00;99.90;;;;;;5052657;28;20223;-75
2021/05/01 03:00:25;;;;;;;34.00;28.37;;;7.00;99.90;;;;;;5052486;28;20473;-76
2021/05/01 03:02:51;;;;;;;35.93;28.67;;;7.00;99.90;;;;;;5052151;28;20183;-75
2021/05/01 03:05:17;;;;;;;34.97;28.60;;;7.00;99.90;;;;;;5052268;28;20465;-75
2021/05/01 03:07:43;;;;;;;33.87;28.77;;;7.00;99.90;;;;;;5052103;28;20206;-76
2021/05/01 03:10:12;;;;;;;35.20;29.50;;;6.90;99.90;;;;;;5052345;28;20459;-76
2021/05/01 03:12:37;;;;;;;37.07;30.47;;;6.90;99.90;;;;;;5052313;28;20419;-76
2021/05/01 03:15:05;;;;;;;38.07;30.33;;;6.90;99.90;;;;;;5052387;28;20419;-76
2021/05/01 03:17:31;;;;;;;31.90;28.17;;;6.90;99.90;;;;;;5052237;28;20745;-76
2021/05/01 03:19:56;;;;;;;35.80;28.03;;;6.90;99.90;;;;;;5051820;28;20517;-76
2021/05/01 03:22:22;;;;;;;36.57;29.80;;;6.90;99.90;;;;;;5052333;28;20295;-75
2021/05/01 03:24:47;;;;;;;40.17;30.67;;;6.90;99.90;;;;;;5052223;28;20207;-76
2021/05/01 03:27:13;;;;;;;39.20;32.00;;;6.80;99.90;;;;;;5052234;28;20180;-76
2021/05/01 03:29:39;;;;;;;41.13;32.10;;;6.90;99.90;;;;;;5052118;28;20176;-76
2021/05/01 03:32:05;;;;;;;36.20;30.00;;;6.90;99.90;;;;;;5051638;28;20267;-76
2021/05/01 03:34:31;;;;;;;34.20;27.60;;;6.90;99.90;;;;;;5052039;28;20168;-76
2021/05/01 03:36:57;;;;;;;32.07;28.00;;;7.00;99.90;;;;;;5050508;28;20485;-76
2021/05/01 03:39:22;;;;;;;37.40;29.67;;;7.00;99.90;;;;;;5050875;28;20295;-76
2021/05/01 03:41:48;;;;;;;34.10;27.67;;;6.90;99.90;;;;;;5050685;28;20180;-75
2021/05/01 03:44:14;;;;;;;33.70;27.03;;;7.00;99.90;;;;;;5051993;28;20272;-76
2021/05/01 03:46:40;;;;;;;35.40;29.70;;;6.90;99.90;;;;;;5051468;28;20569;-76
2021/05/01 03:49:06;;;;;;;33.70;29.43;;;7.00;99.90;;;;;;5051823;28;20939;-76
2021/05/01 03:51:32;;;;;;;31.23;27.20;;;7.10;99.90;;;;;;5050898;28;20679;-76
2021/05/01 03:53:57;;;;;;;35.90;29.07;;;6.90;99.90;;;;;;5051778;28;20194;-76
2021/05/01 03:56:23;;;;;;;31.40;25.30;;;7.00;99.90;;;;;;5051949;28;20427;-76
2021/05/01 03:58:49;;;;;;;38.20;29.60;;;6.90;99.90;;;;;;5051470;28;20619;-75
2021/05/01 04:01:15;;;;;;;31.60;27.47;;;6.80;99.90;;;;;;5050790;28;20194;-76
2021/05/01 04:03:41;;;;;;;34.40;28.13;;;6.90;99.90;;;;;;5051698;28;20770;-76
2021/05/01 04:06:06;;;;;;;36.70;30.30;;;6.80;99.90;;;;;;5051539;28;20985;-75
2021/05/01 04:08:32;;;;;;;32.07;27.50;;;6.90;99.90;;;;;;5050423;28;20275;-76
2021/05/01 04:10:59;;;;;;;35.90;28.80;;;7.00;99.90;;;;;;5051763;28;20578;-76
2021/05/01 04:13:25;;;;;;;32.93;28.03;;;7.00;99.90;;;;;;5051751;28;20411;-76
2021/05/01 04:15:50;;;;;;;32.90;25.97;;;7.10;99.90;;;;;;5055507;28;20430;-76
2021/05/01 04:18:16;;;;;;;31.80;26.83;;;7.10;99.90;;;;;;5054184;28;20429;-76
2021/05/01 04:20:42;;;;;;;32.80;26.43;;;7.00;99.90;;;;;;5055658;28;20194;-76
2021/05/01 04:23:10;;;;;;;32.00;27.13;;;7.00;99.90;;;;;;5054386;28;20210;-75
2021/05/01 04:25:36;;;;;;;35.77;29.47;;;7.00;99.90;;;;;;5054803;28;20459;-76
2021/05/01 04:28:03;;;;;;;32.40;28.37;;;7.00;99.90;;;;;;5051847;28;20427;-76
2021/05/01 04:30:29;;;;;;;35.67;28.50;;;7.00;99.90;;;;;;5054101;28;20520;-76
2021/05/01 04:32:54;;;;;;;30.30;25.30;;;7.00;99.90;;;;;;5057921;28;20821;-76
2021/05/01 04:35:20;;;;;;;29.00;25.77;;;6.90;99.90;;;;;;5074196;28;20550;-76
2021/05/01 04:37:46;;;;;;;33.80;27.23;;;6.90;99.90;;;;;;5073976;28;20352;-76
2021/05/01 04:40:12;;;;;;;29.10;26.00;;;7.00;99.90;;;;;;5073949;28;20537;-75
2021/05/01 04:42:45;;;;;;;29.53;26.43;;;7.00;99.90;;;;;;5061363;28;20183;-76
2021/05/01 04:45:11;;;;;;;31.27;25.67;;;7.10;99.90;;;;;;5051761;28;20445;-76
2021/05/01 04:47:37;;;;;;;31.70;27.07;;;7.10;99.90;;;;;;5054595;28;20457;-76
2021/05/01 04:50:03;;;;;;;32.37;27.57;;;7.10;99.90;;;;;;5054332;28;20918;-76
2021/05/01 04:52:30;;;;;;;28.00;24.03;;;7.10;99.90;;;;;;5054026;28;20242;-76
2021/05/01 04:54:57;;;;;;;30.87;25.50;;;7.10;99.90;;;;;;5053826;28;20497;-76
2021/05/01 04:57:23;;;;;;;33.10;27.43;;;7.20;99.90;;;;;;5053359;28;20506;-76
2021/05/01 04:59:49;;;;;;;31.40;26.80;;;7.20;99.90;;;;;;5053780;28;20509;-76
2021/05/01 05:02:14;;;;;;;31.67;27.87;;;7.10;99.90;;;;;;5053878;28;20202;-76
2021/05/01 05:04:40;;;;;;;34.67;27.50;;;7.10;99.90;;;;;;5053674;28;20225;-76
2021/05/01 05:07:05;;;;;;;31.70;27.70;;;7.10;99.90;;;;;;5053307;28;20931;-75
2021/05/01 05:09:31;;;;;;;34.57;27.83;;;7.20;99.90;;;;;;5053594;28;20255;-76
2021/05/01 05:11:56;;;;;;;32.13;27.50;;;7.20;99.90;;;;;;5051507;28;20287;-76
2021/05/01 05:14:22;;;;;;;33.47;28.23;;;7.20;99.90;;;;;;5067782;28;20483;-76
2021/05/01 05:16:47;;;;;;;32.60;28.43;;;7.20;99.90;;;;;;5071402;28;20179;-76
2021/05/01 05:19:13;;;;;;;40.00;30.07;;;7.20;99.90;;;;;;5069840;28;20175;-76
2021/05/01 05:21:39;;;;;;;32.50;28.43;;;7.10;99.90;;;;;;5072055;28;20264;-76
2021/05/01 05:24:05;;;;;;;29.80;25.63;;;7.10;99.90;;;;;;5072029;28;20409;-76
2021/05/01 05:26:31;;;;;;;32.57;26.97;;;7.00;99.90;;;;;;5070713;28;20222;-76
2021/05/01 05:28:57;;;;;;;37.63;28.93;;;7.10;99.90;;;;;;5072652;28;20437;-76
2021/05/01 05:31:23;;;;;;;36.80;28.37;;;7.20;99.90;;;;;;5054755;28;20855;-76
2021/05/01 05:33:49;;;;;;;33.43;28.20;;;7.20;99.90;;;;;;5034786;28;20485;-76
2021/05/01 05:36:14;;;;;;;34.77;28.80;;;7.30;99.90;;;;;;5033068;28;20256;-76
2021/05/01 05:38:40;;;;;;;37.03;29.73;;;7.40;99.90;;;;;;5033183;28;20180;-76
2021/05/01 05:41:05;;;;;;;31.40;28.00;;;7.40;99.90;;;;;;5033112;28;20216;-76
2021/05/01 05:43:33;;;;;;;34.37;27.47;;;7.40;99.90;;;;;;5032914;28;20211;-76
2021/05/01 05:46:10;;;;;;;35.23;31.00;;;7.50;99.90;;;;;;5032439;28;20295;-77
2021/05/01 05:48:36;;;;;;;33.57;30.10;;;7.60;99.90;;;;;;5032772;28;20402;-76
2021/05/01 05:51:02;;;;;;;32.50;27.33;;;7.70;99.90;;;;;;5032714;28;20411;-76
2021/05/01 05:53:27;;;;;;;30.50;27.13;;;7.80;99.90;;;;;;5032686;28;20169;-76
2021/05/01 05:55:53;;;;;;;29.27;26.27;;;7.90;99.90;;;;;;5048042;28;20428;-76
2021/05/01 05:58:19;;;;;;;28.53;25.43;;;8.10;99.90;;;;;;5030905;28;20180;-76
2021/05/01 06:00:45;;;;;;;27.53;24.70;;;8.20;99.90;;;;;;5031305;28;20203;-76
2021/05/01 06:03:11;;;;;;;29.87;26.80;;;8.30;99.90;;;;;;5032548;28;20945;-76
2021/05/01 06:05:43;;;;;;;31.60;27.03;;;8.40;99.90;;;;;;5032749;28;20249;-76
2021/05/01 06:08:10;;;;;;;28.30;25.40;;;8.20;99.90;;;;;;5038689;28;20423;-76
2021/05/01 06:10:37;;;;;;;30.37;27.00;;;8.50;99.90;;;;;;5073014;28;20408;-76
2021/05/01 06:13:04;;;;;;;29.93;25.17;;;8.20;99.90;;;;;;5072777;28;20426;-76
2021/05/01 06:15:30;;;;;;;27.93;24.60;;;8.50;99.90;;;;;;5072702;28;20795;-77
2021/05/01 06:18:03;;;;;;;30.07;27.03;;;8.60;99.90;;;;;;5071137;28;20456;-76
2021/05/01 06:20:31;;;;;;;29.37;26.17;;;8.60;99.90;;;;;;5072419;28;20421;-76
2021/05/01 06:23:00;;;;;;;28.90;25.80;;;8.60;99.90;;;;;;5057281;28;20484;-76
2021/05/01 06:25:26;;;;;;;29.10;26.10;;;8.50;99.90;;;;;;5050291;28;20569;-76
2021/05/01 06:27:53;;;;;;;29.50;26.47;;;8.60;99.90;;;;;;5051910;28;20422;-76
2021/05/01 06:30:20;;;;;;;30.50;26.93;;;8.50;99.90;;;;;;5051943;28;20419;-76
2021/05/01 06:32:47;;;;;;;31.30;27.70;;;8.50;99.90;;;;;;5051995;28;20829;-76
2021/05/01 06:35:13;;;;;;;29.27;26.17;;;8.60;99.90;;;;;;5051844;28;20806;-76
2021/05/01 06:37:40;;;;;;;29.43;26.47;;;8.60;99.90;;;;;;5050372;28;20476;-75
2021/05/01 06:40:10;;;;;;;30.47;27.17;;;8.60;99.90;;;;;;5051630;28;20775;-76
2021/05/01 06:43:01;;;;;;;30.53;27.20;;;8.60;99.90;;;;;;5050552;28;20426;-76
2021/05/01 06:45:27;;;;;;;28.37;25.33;;;8.50;99.90;;;;;;5049976;28;20509;-76
2021/05/01 06:48:02;;;;;;;44.93;36.50;;;8.40;99.90;;;;;;5051069;28;20817;-76
2021/05/01 06:50:28;;;;;;;34.20;30.47;;;8.50;99.90;;;;;;5050553;28;20777;-76
2021/05/01 06:52:57;;;;;;;30.10;26.90;;;8.60;99.90;;;;;;5050037;28;20552;-76
2021/05/01 06:55:25;;;;;;;30.00;26.83;;;8.60;99.90;;;;;;5051723;28;20476;-76
2021/05/01 06:57:52;;;;;;;29.53;26.50;;;8.60;99.90;;;;;;5051253;28;20505;-76
2021/05/01 07:00:20;;;;;;;31.70;27.93;;;8.70;99.90;;;;;;5051477;28;20430;-76
2021/05/01 07:02:48;;;;;;;32.90;29.30;;;8.70;99.90;;;;;;5050292;28;20576;-76
2021/05/01 07:05:24;;;;;;;30.67;26.27;;;8.80;99.90;;;;;;5050346;28;20821;-76
2021/05/01 07:07:50;;;;;;;29.67;26.30;;;9.00;99.90;;;;;;5048359;28;20465;-76
2021/05/01 07:10:18;;;;;;;43.57;37.17;;;8.90;99.90;;;;;;5050902;28;20414;-76
2021/05/01 07:12:45;;;;;;;30.63;27.10;;;9.20;99.90;;;;;;5050970;28;20414;-76
2021/05/01 07:15:13;;;;;;;29.10;26.07;;;9.30;99.90;;;;;;5051123;28;20418;-75
2021/05/01 07:17:40;;;;;;;27.67;24.70;;;9.40;99.90;;;;;;5050877;28;20407;-76
2021/05/01 07:20:08;;;;;;;30.53;27.33;;;9.20;99.90;;;;;;5050724;28;20418;-75
2021/05/01 07:22:34;;;;;;;31.90;28.60;;;9.20;99.90;;;;;;5062448;28;20402;-76
2021/05/01 07:25:05;;;;;;;29.90;26.67;;;9.30;99.90;;;;;;5070404;28;21003;-76
2021/05/01 07:27:38;;;;;;;31.93;28.50;;;9.30;99.90;;;;;;5070697;28;20888;-76
2021/05/01 07:30:06;;;;;;;33.10;29.47;;;9.40;99.90;;;;;;5070916;28;20892;-76
2021/05/01 07:32:39;;;;;;;36.87;32.83;;;9.20;99.90;;;;;;5071043;28;20467;-76
2021/05/01 07:35:07;;;;;;;31.17;27.87;;;9.40;99.90;;;;;;5071315;28;20781;-77
2021/05/01 07:37:36;;;;;;;29.63;26.50;;;9.20;99.90;;;;;;5070861;28;20510;-76
2021/05/01 07:40:05;;;;;;;33.57;26.60;;;9.20;99.90;;;;;;5068584;28;20474;-76
2021/05/01 07:42:48;;;;;;;30.93;27.70;;;9.60;99.90;;;;;;5070198;28;20420;-76
2021/05/01 07:45:14;;;;;;;31.30;26.97;;;10.20;99.90;;;;;;5070682;28;20461;-77
2021/05/01 07:47:41;;;;;;;29.37;26.27;;;10.80;99.90;;;;;;5071568;28;20426;-76
2021/05/01 07:50:08;;;;;;;26.90;24.20;;;10.70;99.90;;;;;;5074309;28;20997;-76
2021/05/01 07:52:35;;;;;;;26.33;23.80;;;10.50;99.90;;;;;;5073505;28;20414;-76
2021/05/01 07:55:01;;;;;;;26.27;23.67;;;10.30;99.90;;;;;;5074229;28;20413;-75
2021/05/01 07:57:27;;;;;;;26.17;23.40;;;10.10;99.90;;;;;;5074403;28;20428;-76
2021/05/01 07:59:53;;;;;;;24.80;22.40;;;9.80;99.90;;;;;;5075029;28;20426;-77
2021/05/01 08:02:18;;;;;;;25.37;22.97;;;10.00;99.90;;;;;;5074697;28;20631;-76
2021/05/01 08:04:44;;;;;;;26.70;24.00;;;10.00;99.90;;;;;;5074565;28;20178;-75
2021/05/01 08:07:10;;;;;;;27.20;23.93;;;9.80;99.90;;;;;;5074399;28;20202;-75
2021/05/01 08:09:36;;;;;;;25.17;22.60;;;9.60;99.90;;;;;;5072624;28;20414;-75
2021/05/01 08:12:01;;;;;;;27.27;24.67;;;9.50;99.90;;;;;;5074072;28;20183;-75
2021/05/01 08:14:27;;;;;;;27.20;24.40;;;9.60;99.90;;;;;;5073721;28;20258;-75
2021/05/01 08:16:53;;;;;;;27.53;24.83;;;9.50;99.90;;;;;;5072747;28;20179;-75
2021/05/01 08:19:18;;;;;;;26.57;23.97;;;9.70;99.90;;;;;;5072622;28;20171;-76
2021/05/01 08:21:44;;;;;;;23.77;21.33;;;9.60;99.90;;;;;;5069032;28;20293;-75
2021/05/01 08:24:10;;;;;;;29.70;26.60;;;9.80;99.90;;;;;;5053515;28;20685;-78
2021/05/01 08:26:35;;;;;;;29.00;26.07;;;9.80;99.90;;;;;;5054009;28;20618;-75
2021/05/01 08:29:02;;;;;;;25.90;23.23;;;9.70;99.90;;;;;;5054208;28;20204;-75
2021/05/01 08:31:27;;;;;;;26.73;24.13;;;9.60;99.90;;;;;;5053967;28;20266;-75
2021/05/01 08:33:53;;;;;;;25.40;22.70;;;9.50;99.90;;;;;;5052661;28;20505;-74
2021/05/01 08:36:19;;;;;;;26.73;24.13;;;9.40;99.90;;;;;;5053226;28;20243;-77
2021/05/01 08:38:45;;;;;;;28.90;25.40;;;9.30;99.90;;;;;;5052454;28;20184;-77
2021/05/01 08:41:11;;;;;;;29.00;26.10;;;9.30;99.90;;;;;;5052049;28;20517;-77
2021/05/01 08:43:37;;;;;;;29.27;24.23;;;9.40;99.90;;;;;;5053656;28;20706;-75
2021/05/01 08:46:12;;;;;;;29.47;25.50;;;9.50;99.90;;;;;;5053704;28;20572;-75
2021/05/01 08:48:47;;;;;;;29.43;26.33;;;9.30;99.90;;;;;;5053146;28;20168;-75
2021/05/01 08:51:15;;;;;;;29.53;24.87;;;9.30;99.90;;;;;;5053412;28;20484;-75
2021/05/01 08:53:41;;;;;;;28.40;25.43;;;9.30;99.90;;;;;;5053411;28;20475;-75
2021/05/01 08:56:06;;;;;;;34.57;30.43;;;9.20;99.90;;;;;;5050891;28;20442;-75
2021/05/01 08:58:32;;;;;;;32.10;26.57;;;9.10;99.90;;;;;;5050023;28;20184;-74
2021/05/01 09:00:58;;;;;;;30.20;25.60;;;9.10;99.90;;;;;;5051623;28;20184;-75
2021/05/01 09:03:24;;;;;;;27.97;23.40;;;9.10;99.90;;;;;;5052338;28;20184;-75
2021/05/01 09:05:52;;;;;;;29.60;26.40;;;9.20;99.90;;;;;;5052512;28;20523;-76
2021/05/01 09:08:19;;;;;;;33.07;29.40;;;9.20;99.90;;;;;;5052374;28;20437;-76
2021/05/01 09:10:48;;;;;;;28.77;25.70;;;9.30;99.90;;;;;;5052615;28;20431;-76
2021/05/01 09:13:22;;;;;;;29.73;26.63;;;9.30;99.90;;;;;;5051027;28;20422;-76
2021/05/01 09:15:58;;;;;;;29.27;26.37;;;9.30;99.90;;;;;;5051021;28;20434;-75
2021/05/01 09:18:25;;;;;;;32.50;28.40;;;9.40;99.90;;;;;;5051015;28;20509;-76
2021/05/01 09:20:52;;;;;;;32.37;27.60;;;9.40;99.90;;;;;;5052401;28;20755;-76
2021/05/01 09:23:17;;;;;;;33.67;29.50;;;9.10;99.90;;;;;;5070333;28;21257;-75
2021/05/01 09:25:48;;;;;;;32.23;28.37;;;9.20;99.90;;;;;;5056146;28;20553;-75
2021/05/01 09:28:15;;;;;;;30.30;27.03;;;9.20;99.90;;;;;;5051230;28;20631;-76
2021/05/01 09:30:43;;;;;;;31.33;28.03;;;9.20;99.90;;;;;;5052363;28;20410;-76
2021/05/01 09:33:31;;;;;;;30.90;27.47;;;9.30;99.90;;;;;;5052710;28;20476;-76
2021/05/01 09:36:07;;;;;;;31.13;27.53;;;9.20;99.90;;;;;;5052560;28;20459;-76
2021/05/01 09:38:37;;;;;;;33.60;28.50;;;9.40;99.90;;;;;;5053080;28;20442;-76
2021/05/01 09:41:09;;;;;;;33.83;30.23;;;9.30;99.90;;;;;;5052148;28;20433;-76
2021/05/01 09:43:35;;;;;;;31.70;28.30;;;9.20;99.90;;;;;;5050906;28;20436;-75
2021/05/01 09:46:13;;;;;;;33.20;29.70;;;9.50;99.90;;;;;;5050945;28;20844;-77
2021/05/01 09:48:39;;;;;;;32.53;28.80;;;9.60;99.90;;;;;;5052166;28;20642;-76
2021/05/01 09:51:05;;;;;;;30.83;27.67;;;9.70;99.90;;;;;;5054365;28;20446;-76
2021/05/01 09:53:31;;;;;;;33.67;29.87;;;9.80;99.90;;;;;;5072200;28;20451;-76
2021/05/01 09:55:58;;;;;;;34.97;31.20;;;9.80;99.90;;;;;;5072502;28;20421;-76
2021/05/01 09:58:29;;;;;;;32.87;29.47;;;9.70;99.90;;;;;;5071033;28;21014;-76
2021/05/01 10:01:13;;;;;;;32.10;28.63;;;9.90;99.90;;;;;;5072352;28;20488;-75
2021/05/01 10:03:39;;;;;;;33.13;29.83;;;9.90;99.90;;;;;;5072419;28;20413;-76
2021/05/01 10:06:07;;;;;;;34.00;30.40;;;9.80;99.90;;;;;;5072021;28;20465;-76
2021/05/01 10:08:33;;;;;;;35.47;31.77;;;9.90;99.90;;;;;;5072088;28;20420;-76
2021/05/01 10:11:10;;;;;;;31.20;27.90;;;9.90;99.90;;;;;;5071255;28;20455;-75
2021/05/01 10:13:58;;;;;;;34.43;30.73;;;9.90;99.90;;;;;;5071197;28;20417;-76
2021/05/01 10:16:25;;;;;;;38.70;32.63;;;9.80;99.90;;;;;;5071704;28;20781;-76
2021/05/01 10:19:02;;;;;;;31.67;28.33;;;9.90;99.90;;;;;;5048961;28;20423;-74
2021/05/01 10:21:28;;;;;;;33.50;30.07;;;10.10;99.90;;;;;;5050478;28;20525;-75
2021/05/01 10:23:56;;;;;;;30.97;27.70;;;10.20;99.90;;;;;;5052579;28;20506;-74
2021/05/01 10:26:22;;;;;;;29.77;26.67;;;10.20;99.90;;;;;;5052204;28;20306;-76
2021/05/01 10:28:50;;;;;;;32.20;28.37;;;10.20;99.90;;;;;;5051205;28;20457;-74
2021/05/01 10:31:19;;;;;;;31.67;28.27;;;10.20;99.90;;;;;;5050724;28;20450;-75
2021/05/01 10:33:46;;;;;;;30.07;26.50;;;10.40;99.90;;;;;;5052420;28;20513;-74
2021/05/01 10:36:28;;;;;;;29.80;26.70;;;10.40;99.90;;;;;;5052351;28;20494;-74
2021/05/01 10:39:06;;;;;;;30.17;27.17;;;10.60;99.90;;;;;;5052540;28;20850;-74
2021/05/01 10:41:33;;;;;;;30.80;27.77;;;10.80;99.90;;;;;;5052614;28;20450;-75
2021/05/01 10:44:00;;;;;;;27.37;24.67;;;10.90;99.90;;;;;;5052150;28;20445;-75
2021/05/01 10:46:34;;;;;;;27.80;24.53;;;10.80;99.90;;;;;;5050397;28;20470;-76
2021/05/01 10:49:02;;;;;;;29.30;26.30;;;10.50;99.90;;;;;;5051483;28;20818;-76
2021/05/01 10:51:30;;;;;;;29.17;26.17;;;10.90;99.90;;;;;;5051930;28;20438;-75
2021/05/01 10:54:12;;;;;;;29.40;26.33;;;10.80;99.90;;;;;;5051780;28;20419;-75
2021/05/01 10:56:47;;;;;;;30.10;26.87;;;10.90;99.90;;;;;;5050642;28;20430;-77
2021/05/01 10:59:24;;;;;;;32.57;29.30;;;10.70;99.90;;;;;;5052129;28;20414;-75
2021/05/01 11:01:51;;;;;;;31.20;28.00;;;10.70;99.90;;;;;;5052244;28;20422;-75
2021/05/01 11:04:32;;;;;;;30.80;26.73;;;10.80;99.90;;;;;;5050904;28;20410;-75
2021/05/01 11:07:32;;;;;;;30.73;27.53;;;10.90;99.90;;;;;;5052266;28;20542;-76
2021/05/01 11:10:04;;;;;;;29.30;26.13;;;10.80;99.90;;;;;;5051879;28;20423;-75
2021/05/01 11:12:37;;;;;;;29.50;26.40;;;10.80;99.90;;;;;;5052030;28;20398;-76
2021/05/01 11:15:09;;;;;;;31.80;28.50;;;10.50;99.90;;;;;;5051507;28;20416;-76
2021/05/01 11:17:37;;;;;;;30.73;26.87;;;10.40;99.90;;;;;;5050515;28;20184;-76
2021/05/01 11:20:12;;;;;;;30.83;27.53;;;10.60;99.90;;;;;;5051675;28;20909;-76
2021/05/01 11:22:39;;;;;;;30.97;27.87;;;10.40;99.90;;;;;;5050028;28;20420;-77
2021/05/01 11:25:16;;;;;;;32.90;29.50;;;10.20;99.90;;;;;;5042647;28;20434;-76
2021/05/01 11:27:47;;;;;;;31.80;28.60;;;10.40;99.90;;;;;;5030680;28;20431;-77
2021/05/01 11:30:16;;;;;;;30.20;27.07;;;10.50;99.90;;;;;;5049549;28;20432;-76
2021/05/01 11:32:42;;;;;;;29.67;26.50;;;10.70;99.90;;;;;;5070622;28;20998;-76
2021/05/01 11:35:23;;;;;;;35.10;31.50;;;10.80;99.90;;;;;;5070493;28;20433;-77
2021/05/01 11:37:51;;;;;;;32.33;28.90;;;11.00;99.90;;;;;;5053603;28;20462;-77
2021/05/01 11:40:19;;;;;;;29.83;26.83;;;10.60;99.90;;;;;;5050328;28;21003;-77
2021/05/01 11:42:45;;;;;;;31.80;26.90;;;10.80;99.90;;;;;;5062765;28;20418;-77
2021/05/01 11:45:33;;;;;;;32.70;29.10;;;10.70;99.90;;;;;;5070153;28;20476;-76
2021/05/01 11:48:06;;;;;;;32.30;28.97;;;10.90;99.90;;;;;;5071118;28;20418;-77
2021/05/01 11:50:33;;;;;;;31.77;28.27;;;11.10;99.90;;;;;;5071225;28;20398;-76
2021/05/01 11:53:36;;;;;;;32.40;29.00;;;11.20;99.90;;;;;;5070644;28;20955;-75
2021/05/01 11:56:25;;;;;;;33.57;30.07;;;11.20;99.90;;;;;;5070706;28;20417;-76
2021/05/01 11:58:50;;;;;;;29.43;26.27;;;11.30;99.90;;;;;;5070855;28;20409;-76
2021/05/01 12:01:21;;;;;;;32.97;29.73;;;11.20;99.90;;;;;;5070542;28;20475;-76
2021/05/01 12:04:01;;;;;;;32.77;29.10;;;11.30;99.90;;;;;;5070686;28;20167;-76
2021/05/01 12:06:45;;;;;;;30.17;27.10;;;11.30;99.90;;;;;;5070826;28;20468;-76
2021/05/01 12:09:39;;;;;;;31.40;28.10;;;11.30;99.90;;;;;;5069403;28;20417;-76
2021/05/01 12:12:09;;;;;;;29.80;26.00;;;11.20;99.90;;;;;;5068877;28;20467;-76
2021/05/01 12:14:35;;;;;;;30.30;26.00;;;11.10;99.90;;;;;;5070644;28;20464;-76
2021/05/01 12:17:12;;;;;;;31.30;27.43;;;11.20;99.90;;;;;;5069669;28;20421;-76
2021/05/01 12:19:43;;;;;;;31.77;28.37;;;11.30;99.90;;;;;;5055112;28;20804;-76
2021/05/01 12:22:28;;;;;;;31.80;28.40;;;11.20;99.90;;;;;;5051509;28;20459;-76
2021/05/01 12:24:55;;;;;;;30.33;27.10;;;11.20;99.90;;;;;;5050312;28;20453;-76
2021/05/01 12:27:50;;;;;;;32.63;29.07;;;11.30;99.90;;;;;;5051378;28;20785;-77
2021/05/01 12:30:47;;;;;;;32.57;29.17;;;11.00;99.90;;;;;;5050188;28;20980;-75
2021/05/01 12:33:32;;;;;;;32.90;29.50;;;11.10;99.90;;;;;;5051835;28;20421;-76
2021/05/01 12:36:05;;;;;;;31.87;28.40;;;11.00;99.90;;;;;;5053952;28;20454;-77
2021/05/01 12:38:42;;;;;;;33.60;30.00;;;10.90;99.90;;;;;;5054004;28;21240;-76
2021/05/01 12:41:12;;;;;;;31.50;28.23;;;10.90;99.90;;;;;;5054908;28;20409;-76
2021/05/01 12:43:45;;;;;;;33.03;29.53;;;10.80;99.90;;;;;;5055079;28;20421;-76
2021/05/01 12:46:14;;;;;;;31.77;28.60;;;10.70;99.90;;;;;;5055073;28;20474;-76
2021/05/01 12:48:48;;;;;;;31.27;27.97;;;10.80;99.90;;;;;;5055001;28;20414;-77
2021/05/01 12:51:30;;;;;;;35.60;29.50;;;10.80;99.90;;;;;;5055220;28;20992;-76